Djeneba — WDD7832 — position and weather

sailwx.info

Track history (hours):
 
Tides and Currents Weather Stations Pressure Air Temp Water Temp Dewpoint Dewpoint Depression Visibility Wind Speed Wind Dir Waves Ship Positions

Djeneba

Owner: Keller, James R, Gig Harbor, WA. More information available from US FCC via Universal Licensing System and Coast Guard Vessel Documentation Center.

Last reported at 2016-Jul-13 15:06 UTC. Time now 2016-Jul-24 08:49 UTC.
Position N 50°13' W 125°22'.
Warning: this ship's position is 10 days out of date.

Length 19 m.

Type: Pleasure craft. MMSI: 367191910.

Date/timePositionNaut miles runAvg speedWind from/ knotsBaromVisibWave heightAir tempDewpointWater temp
2016-Jul-13 15:06N 50°13' W 125°22'610.1
2016-Jul-13 14:32N 50°08' W 125°21'6 0.3
2016-Jul-12 17:30N 50°04' W 125°14'8 5.8
2016-Jul-12 16:09N 50°01' W 125°03'5 8.2
2016-Jul-12 15:33N 50°06' W 125°01'0 0.1
2016-Jul-12 14:33N 50°06' W 125°01'0 0.0
2016-Jul-12 13:33N 50°06' W 125°01'0 0.0
2016-Jul-12 12:33N 50°06' W 125°01'0 0.0
2016-Jul-12 11:34N 50°06' W 125°01'0 0.0
2016-Jul-12 10:33N 50°06' W 125°01'0 0.0
2016-Jul-12 09:33N 50°06' W 125°01'0 0.0
2016-Jul-12 08:33N 50°06' W 125°01'0 0.0
2016-Jul-12 07:33N 50°06' W 125°01'0 0.0
2016-Jul-12 06:33N 50°06' W 125°01'0 0.0
2016-Jul-12 05:33N 50°06' W 125°01'0 0.0
2016-Jul-12 04:33N 50°06' W 125°01'0 0.0
2016-Jul-12 03:33N 50°06' W 125°01'0 0.0
2016-Jul-12 02:33N 50°06' W 125°01'0 0.0
2016-Jul-12 01:33N 50°06' W 125°01'0 0.0
2016-Jul-12 00:33N 50°06' W 125°01'0 0.0
2016-Jul-11 23:33N 50°06' W 125°01'0 0.0
2016-Jul-11 22:33N 50°06' W 125°01'0 0.0
2016-Jul-11 21:33N 50°06' W 125°01'0 0.0
2016-Jul-11 20:33N 50°06' W 125°01'0 0.0
2016-Jul-11 19:33N 50°06' W 125°01'0 0.0
2016-Jul-11 18:33N 50°06' W 125°01'0 0.0
2016-Jul-11 17:33N 50°06' W 125°01'0 0.0
2016-Jul-11 16:33N 50°06' W 125°01'0 0.0
2016-Jul-11 15:33N 50°06' W 125°01'0 0.0
2016-Jul-11 14:33N 50°06' W 125°01'0 0.0
2016-Jul-11 13:33N 50°06' W 125°01'0 0.0
2016-Jul-11 12:33N 50°06' W 125°01'0 0.0
2016-Jul-11 11:33N 50°06' W 125°01'0 0.0
2016-Jul-11 10:33N 50°06' W 125°01'0 0.0
2016-Jul-11 09:33N 50°06' W 125°01'0 0.0
2016-Jul-11 08:33N 50°06' W 125°01'0 0.0
2016-Jul-11 07:34N 50°06' W 125°01'0 0.0
2016-Jul-11 06:33N 50°06' W 125°01'0 0.0
2016-Jul-11 04:33N 50°06' W 125°01'0 0.0
2016-Jul-11 03:33N 50°06' W 125°01'0 0.0
2016-Jul-11 02:33N 50°06' W 125°01'0 0.0
2016-Jul-11 01:33N 50°06' W 125°01'0 0.0
2016-Jul-11 00:33N 50°06' W 125°01'0 0.0
2016-Jul-10 23:31N 50°06' W 125°01'0 0.0
2016-Jul-10 22:33N 50°06' W 125°01'6 5.4
2016-Jul-10 21:32N 50°00' W 125°02'8 7.3
2016-Jul-10 20:25N 49°59' W 124°49'38 1.4
2016-Jul-09 17:09N 49°32' W 124°07'710.9
2016-Jul-09 16:33N 49°26' W 124°02'1211.6
2016-Jul-09 15:33N 49°15' W 123°55'5 0.3
2016-Jul-08 20:32N 49°10' W 123°56'65 1.3
2016-Jul-06 19:25N 48°31' W 122°37'0 0.0
2016-Jul-06 18:33N 48°31' W 122°36'39 1.5
2016-Jul-05 16:33N 47°52' W 122°29'1010.5
2016-Jul-05 15:33N 47°42' W 122°27'1010.2
2016-Jul-05 14:33N 47°32' W 122°25'1010.0
2016-Jul-05 13:33N 47°22' W 122°22'  
Track history (hours):
 
Tides and Currents Weather Stations Pressure Air Temp Water Temp Dewpoint Dewpoint Depression Visibility Wind Speed Wind Dir Waves Ship Positions

Djeneba

Owner: Keller, James R, Gig Harbor, WA. More information available from US FCC via Universal Licensing System and Coast Guard Vessel Documentation Center.

Last reported at 2016-Jul-13 15:06 UTC. Time now 2016-Jul-24 08:49 UTC.
Position N 50°13' W 125°22'.
Warning: this ship's position is 10 days out of date.

Length 19 m.

Type: Pleasure craft. MMSI: 367191910.

Date/timePositionNaut miles runAvg speedWind from/ knotsBaromVisibWave heightAir tempDewpointWater temp
2016-Jul-13 15:06N 50°13' W 125°22'610.1
2016-Jul-13 14:32N 50°08' W 125°21'6 0.3
2016-Jul-12 17:30N 50°04' W 125°14'8 5.8
2016-Jul-12 16:09N 50°01' W 125°03'5 8.2
2016-Jul-12 15:33N 50°06' W 125°01'0 0.1
2016-Jul-12 14:33N 50°06' W 125°01'0 0.0
2016-Jul-12 13:33N 50°06' W 125°01'0 0.0
2016-Jul-12 12:33N 50°06' W 125°01'0 0.0
2016-Jul-12 11:34N 50°06' W 125°01'0 0.0
2016-Jul-12 10:33N 50°06' W 125°01'0 0.0
2016-Jul-12 09:33N 50°06' W 125°01'0 0.0
2016-Jul-12 08:33N 50°06' W 125°01'0 0.0
2016-Jul-12 07:33N 50°06' W 125°01'0 0.0
2016-Jul-12 06:33N 50°06' W 125°01'0 0.0
2016-Jul-12 05:33N 50°06' W 125°01'0 0.0
2016-Jul-12 04:33N 50°06' W 125°01'0 0.0
2016-Jul-12 03:33N 50°06' W 125°01'0 0.0
2016-Jul-12 02:33N 50°06' W 125°01'0 0.0
2016-Jul-12 01:33N 50°06' W 125°01'0 0.0
2016-Jul-12 00:33N 50°06' W 125°01'0 0.0
2016-Jul-11 23:33N 50°06' W 125°01'0 0.0
2016-Jul-11 22:33N 50°06' W 125°01'0 0.0
2016-Jul-11 21:33N 50°06' W 125°01'0 0.0
2016-Jul-11 20:33N 50°06' W 125°01'0 0.0
2016-Jul-11 19:33N 50°06' W 125°01'0 0.0
2016-Jul-11 18:33N 50°06' W 125°01'0 0.0
2016-Jul-11 17:33N 50°06' W 125°01'0 0.0
2016-Jul-11 16:33N 50°06' W 125°01'0 0.0
2016-Jul-11 15:33N 50°06' W 125°01'0 0.0
2016-Jul-11 14:33N 50°06' W 125°01'0 0.0
2016-Jul-11 13:33N 50°06' W 125°01'0 0.0
2016-Jul-11 12:33N 50°06' W 125°01'0 0.0
2016-Jul-11 11:33N 50°06' W 125°01'0 0.0
2016-Jul-11 10:33N 50°06' W 125°01'0 0.0
2016-Jul-11 09:33N 50°06' W 125°01'0 0.0
2016-Jul-11 08:33N 50°06' W 125°01'0 0.0
2016-Jul-11 07:34N 50°06' W 125°01'0 0.0
2016-Jul-11 06:33N 50°06' W 125°01'0 0.0
2016-Jul-11 04:33N 50°06' W 125°01'0 0.0
2016-Jul-11 03:33N 50°06' W 125°01'0 0.0
2016-Jul-11 02:33N 50°06' W 125°01'0 0.0
2016-Jul-11 01:33N 50°06' W 125°01'0 0.0
2016-Jul-11 00:33N 50°06' W 125°01'0 0.0
2016-Jul-10 23:31N 50°06' W 125°01'0 0.0
2016-Jul-10 22:33N 50°06' W 125°01'6 5.4
2016-Jul-10 21:32N 50°00' W 125°02'8 7.3
2016-Jul-10 20:25N 49°59' W 124°49'38 1.4
2016-Jul-09 17:09N 49°32' W 124°07'710.9
2016-Jul-09 16:33N 49°26' W 124°02'1211.6
2016-Jul-09 15:33N 49°15' W 123°55'5 0.3
2016-Jul-08 20:32N 49°10' W 123°56'65 1.3
2016-Jul-06 19:25N 48°31' W 122°37'0 0.0
2016-Jul-06 18:33N 48°31' W 122°36'39 1.5
2016-Jul-05 16:33N 47°52' W 122°29'1010.5
2016-Jul-05 15:33N 47°42' W 122°27'1010.2
2016-Jul-05 14:33N 47°32' W 122°25'1010.0
2016-Jul-05 13:33N 47°22' W 122°22'  

Dump ship's entire track history